sensor_id;sensor_type;location;lat;lon;timestamp;temperature;humidity
56044;DHT22;41912;51.022;3.664;2022-10-15T00:00:28;15.70;99.90
56044;DHT22;41912;51.022;3.664;2022-10-15T00:02:53;15.70;99.90
56044;DHT22;41912;51.022;3.664;2022-10-15T00:05:19;15.90;99.90
56044;DHT22;41912;51.022;3.664;2022-10-15T00:07:45;15.70;99.90
56044;DHT22;41912;51.022;3.664;2022-10-15T00:10:11;15.70;99.90
56044;DHT22;41912;51.022;3.664;2022-10-15T00:12:37;15.80;99.90
56044;DHT22;41912;51.022;3.664;2022-10-15T00:15:04;15.80;99.90
56044;DHT22;41912;51.022;3.664;2022-10-15T00:17:31;15.80;99.90
56044;DHT22;41912;51.022;3.664;2022-10-15T00:19:57;15.80;99.90
56044;DHT22;41912;51.022;3.664;2022-10-15T00:22:23;15.80;99.90
56044;DHT22;41912;51.022;3.664;2022-10-15T00:24:48;15.80;99.90
56044;DHT22;41912;51.022;3.664;2022-10-15T00:27:14;15.80;99.90
56044;DHT22;41912;51.022;3.664;2022-10-15T00:29:39;15.80;99.90
56044;DHT22;41912;51.022;3.664;2022-10-15T00:32:05;15.80;99.90
56044;DHT22;41912;51.022;3.664;2022-10-15T00:34:30;15.80;99.90
56044;DHT22;41912;51.022;3.664;2022-10-15T00:36:56;15.80;99.90
56044;DHT22;41912;51.022;3.664;2022-10-15T00:39:22;15.80;99.90
56044;DHT22;41912;51.022;3.664;2022-10-15T00:41:47;15.80;99.90
56044;DHT22;41912;51.022;3.664;2022-10-15T00:49:29;15.80;99.90
56044;DHT22;41912;51.022;3.664;2022-10-15T00:52:15;15.80;99.90
56044;DHT22;41912;51.022;3.664;2022-10-15T00:54:44;15.80;99.90
56044;DHT22;41912;51.022;3.664;2022-10-15T00:57:11;15.80;99.90
56044;DHT22;41912;51.022;3.664;2022-10-15T00:59:42;15.70;99.90
56044;DHT22;41912;51.022;3.664;2022-10-15T01:02:10;15.70;99.90
56044;DHT22;41912;51.022;3.664;2022-10-15T01:04:36;15.70;99.90
56044;DHT22;41912;51.022;3.664;2022-10-15T01:07:02;15.70;99.90
56044;DHT22;41912;51.022;3.664;2022-10-15T01:09:27;15.60;99.90
56044;DHT22;41912;51.022;3.664;2022-10-15T01:11:54;15.60;99.90
56044;DHT22;41912;51.022;3.664;2022-10-15T01:14:48;15.60;99.90
56044;DHT22;41912;51.022;3.664;2022-10-15T01:31:10;15.40;99.90
56044;DHT22;41912;51.022;3.664;2022-10-15T01:33:57;15.50;99.90
56044;DHT22;41912;51.022;3.664;2022-10-15T01:36:35;15.40;99.90
56044;DHT22;41912;51.022;3.664;2022-10-15T01:39:15;15.40;99.90
56044;DHT22;41912;51.022;3.664;2022-10-15T01:41:46;15.40;99.90
56044;DHT22;41912;51.022;3.664;2022-10-15T01:46:53;15.40;99.90
56044;DHT22;41912;51.022;3.664;2022-10-15T01:49:24;15.40;99.90
56044;DHT22;41912;51.022;3.664;2022-10-15T01:51:52;15.40;99.90
56044;DHT22;41912;51.022;3.664;2022-10-15T01:54:19;15.30;99.90
56044;DHT22;41912;51.022;3.664;2022-10-15T01:56:49;15.40;99.90
56044;DHT22;41912;51.022;3.664;2022-10-15T01:59:19;15.30;99.90
56044;DHT22;41912;51.022;3.664;2022-10-15T02:01:45;15.30;99.90
56044;DHT22;41912;51.022;3.664;2022-10-15T02:04:23;15.20;99.90
56044;DHT22;41912;51.022;3.664;2022-10-15T02:07:02;15.30;99.90
56044;DHT22;41912;51.022;3.664;2022-10-15T02:12:03;15.30;99.90
56044;DHT22;41912;51.022;3.664;2022-10-15T02:17:35;15.30;99.90
56044;DHT22;41912;51.022;3.664;2022-10-15T02:20:17;15.30;99.90
56044;DHT22;41912;51.022;3.664;2022-10-15T02:22:56;15.40;99.90
56044;DHT22;41912;51.022;3.664;2022-10-15T02:25:27;15.40;99.90
56044;DHT22;41912;51.022;3.664;2022-10-15T02:27:54;15.40;99.90
56044;DHT22;41912;51.022;3.664;2022-10-15T02:30:22;15.40;99.90
56044;DHT22;41912;51.022;3.664;2022-10-15T02:32:52;15.40;99.90
56044;DHT22;41912;51.022;3.664;2022-10-15T02:35:19;15.40;99.90
56044;DHT22;41912;51.022;3.664;2022-10-15T02:37:47;15.50;99.90
56044;DHT22;41912;51.022;3.664;2022-10-15T02:40:14;15.50;99.90
56044;DHT22;41912;51.022;3.664;2022-10-15T02:42:40;15.50;99.90
56044;DHT22;41912;51.022;3.664;2022-10-15T02:45:06;15.50;99.90
56044;DHT22;41912;51.022;3.664;2022-10-15T02:47:32;15.50;99.90
56044;DHT22;41912;51.022;3.664;2022-10-15T02:49:57;15.50;99.90
56044;DHT22;41912;51.022;3.664;2022-10-15T02:52:23;15.50;99.90
56044;DHT22;41912;51.022;3.664;2022-10-15T02:54:49;15.50;99.90
56044;DHT22;41912;51.022;3.664;2022-10-15T02:57:14;15.50;99.90
56044;DHT22;41912;51.022;3.664;2022-10-15T02:59:40;15.50;99.90
56044;DHT22;41912;51.022;3.664;2022-10-15T03:02:06;15.50;99.90
56044;DHT22;41912;51.022;3.664;2022-10-15T03:04:32;15.50;99.90
56044;DHT22;41912;51.022;3.664;2022-10-15T03:06:58;15.50;99.90
56044;DHT22;41912;51.022;3.664;2022-10-15T03:09:23;15.50;99.90
56044;DHT22;41912;51.022;3.664;2022-10-15T03:11:49;15.50;99.90
56044;DHT22;41912;51.022;3.664;2022-10-15T03:14:14;15.50;99.90
56044;DHT22;41912;51.022;3.664;2022-10-15T03:16:40;15.50;99.90
56044;DHT22;41912;51.022;3.664;2022-10-15T03:19:06;15.50;99.90
56044;DHT22;41912;51.022;3.664;2022-10-15T03:21:31;15.50;99.90
56044;DHT22;41912;51.022;3.664;2022-10-15T03:23:57;15.50;99.90
56044;DHT22;41912;51.022;3.664;2022-10-15T03:26:23;15.50;99.90
56044;DHT22;41912;51.022;3.664;2022-10-15T03:28:49;15.50;99.90
56044;DHT22;41912;51.022;3.664;2022-10-15T03:31:15;15.50;99.90
56044;DHT22;41912;51.022;3.664;2022-10-15T03:33:40;15.50;99.90
56044;DHT22;41912;51.022;3.664;2022-10-15T03:36:06;15.50;99.90
56044;DHT22;41912;51.022;3.664;2022-10-15T03:38:32;15.50;99.90
56044;DHT22;41912;51.022;3.664;2022-10-15T03:40:58;15.50;99.90
56044;DHT22;41912;51.022;3.664;2022-10-15T03:43:24;15.50;99.90
56044;DHT22;41912;51.022;3.664;2022-10-15T03:45:50;15.50;99.90
56044;DHT22;41912;51.022;3.664;2022-10-15T03:48:16;15.50;99.90
56044;DHT22;41912;51.022;3.664;2022-10-15T03:50:41;15.50;99.90
56044;DHT22;41912;51.022;3.664;2022-10-15T03:53:07;15.50;99.90
56044;DHT22;41912;51.022;3.664;2022-10-15T03:55:33;15.50;99.90
56044;DHT22;41912;51.022;3.664;2022-10-15T03:57:58;15.50;99.90
56044;DHT22;41912;51.022;3.664;2022-10-15T04:00:24;15.50;99.90
56044;DHT22;41912;51.022;3.664;2022-10-15T04:02:50;15.50;99.90
56044;DHT22;41912;51.022;3.664;2022-10-15T04:05:16;15.50;99.90
56044;DHT22;41912;51.022;3.664;2022-10-15T04:07:41;15.50;99.90
56044;DHT22;41912;51.022;3.664;2022-10-15T04:10:07;15.50;99.90
56044;DHT22;41912;51.022;3.664;2022-10-15T04:12:33;15.50;99.90
56044;DHT22;41912;51.022;3.664;2022-10-15T04:14:59;15.50;99.90
56044;DHT22;41912;51.022;3.664;2022-10-15T04:17:24;15.50;99.90
56044;DHT22;41912;51.022;3.664;2022-10-15T04:19:50;15.50;99.90
56044;DHT22;41912;51.022;3.664;2022-10-15T04:22:16;15.50;99.90
56044;DHT22;41912;51.022;3.664;2022-10-15T04:24:42;15.50;99.90
56044;DHT22;41912;51.022;3.664;2022-10-15T04:27:07;15.50;99.90
56044;DHT22;41912;51.022;3.664;2022-10-15T04:29:33;15.50;99.90
56044;DHT22;41912;51.022;3.664;2022-10-15T04:31:58;15.50;99.90
56044;DHT22;41912;51.022;3.664;2022-10-15T04:34:24;15.50;99.90
56044;DHT22;41912;51.022;3.664;2022-10-15T04:36:50;15.50;99.90
56044;DHT22;41912;51.022;3.664;2022-10-15T04:39:15;15.50;99.90
56044;DHT22;41912;51.022;3.664;2022-10-15T04:41:41;15.50;99.90
56044;DHT22;41912;51.022;3.664;2022-10-15T04:44:06;15.50;99.90
56044;DHT22;41912;51.022;3.664;2022-10-15T04:46:32;15.50;99.90
56044;DHT22;41912;51.022;3.664;2022-10-15T04:48:58;15.50;99.90
56044;DHT22;41912;51.022;3.664;2022-10-15T04:51:24;15.50;99.90
56044;DHT22;41912;51.022;3.664;2022-10-15T04:53:50;15.50;99.90
56044;DHT22;41912;51.022;3.664;2022-10-15T04:56:19;15.50;99.90
56044;DHT22;41912;51.022;3.664;2022-10-15T04:58:46;15.50;99.90
56044;DHT22;41912;51.022;3.664;2022-10-15T05:01:15;15.50;99.90
56044;DHT22;41912;51.022;3.664;2022-10-15T05:03:42;15.50;99.90
56044;DHT22;41912;51.022;3.664;2022-10-15T05:06:15;15.50;99.90
56044;DHT22;41912;51.022;3.664;2022-10-15T05:08:41;15.50;99.90
56044;DHT22;41912;51.022;3.664;2022-10-15T05:11:10;15.50;99.90
56044;DHT22;41912;51.022;3.664;2022-10-15T05:13:36;15.50;99.90
56044;DHT22;41912;51.022;3.664;2022-10-15T05:16:11;15.50;99.90
56044;DHT22;41912;51.022;3.664;2022-10-15T05:18:37;15.50;99.90
56044;DHT22;41912;51.022;3.664;2022-10-15T05:21:03;15.50;99.90
56044;DHT22;41912;51.022;3.664;2022-10-15T05:23:29;15.50;99.90
56044;DHT22;41912;51.022;3.664;2022-10-15T05:25:58;15.50;99.90
56044;DHT22;41912;51.022;3.664;2022-10-15T05:28:24;15.50;99.90
56044;DHT22;41912;51.022;3.664;2022-10-15T05:30:50;15.40;99.90
56044;DHT22;41912;51.022;3.664;2022-10-15T05:33:15;15.40;99.90
56044;DHT22;41912;51.022;3.664;2022-10-15T05:35:41;15.40;99.90
56044;DHT22;41912;51.022;3.664;2022-10-15T05:38:07;15.40;99.90
56044;DHT22;41912;51.022;3.664;2022-10-15T05:40:32;15.40;99.90
56044;DHT22;41912;51.022;3.664;2022-10-15T05:42:58;15.40;99.90
56044;DHT22;41912;51.022;3.664;2022-10-15T05:45:24;15.30;99.90
56044;DHT22;41912;51.022;3.664;2022-10-15T05:47:53;15.30;99.90
56044;DHT22;41912;51.022;3.664;2022-10-15T05:50:19;15.30;99.90
56044;DHT22;41912;51.022;3.664;2022-10-15T05:52:45;15.30;99.90
56044;DHT22;41912;51.022;3.664;2022-10-15T05:55:10;15.40;99.90
56044;DHT22;41912;51.022;3.664;2022-10-15T05:57:36;15.30;99.90
56044;DHT22;41912;51.022;3.664;2022-10-15T06:00:03;15.30;99.90
56044;DHT22;41912;51.022;3.664;2022-10-15T06:02:29;15.30;99.90
56044;DHT22;41912;51.022;3.664;2022-10-15T06:04:55;15.40;99.90
56044;DHT22;41912;51.022;3.664;2022-10-15T06:07:20;15.40;99.90
56044;DHT22;41912;51.022;3.664;2022-10-15T06:09:46;15.40;99.90
56044;DHT22;41912;51.022;3.664;2022-10-15T06:12:11;15.40;99.90
56044;DHT22;41912;51.022;3.664;2022-10-15T06:14:37;15.40;99.90
56044;DHT22;41912;51.022;3.664;2022-10-15T06:17:03;15.40;99.90
56044;DHT22;41912;51.022;3.664;2022-10-15T06:19:28;15.40;99.90
56044;DHT22;41912;51.022;3.664;2022-10-15T06:21:54;15.40;99.90
56044;DHT22;41912;51.022;3.664;2022-10-15T06:24:19;15.40;99.90
56044;DHT22;41912;51.022;3.664;2022-10-15T06:26:45;15.40;99.90
56044;DHT22;41912;51.022;3.664;2022-10-15T06:29:10;15.40;99.90
56044;DHT22;41912;51.022;3.664;2022-10-15T06:31:36;15.40;99.90
56044;DHT22;41912;51.022;3.664;2022-10-15T06:34:02;15.50;99.90
56044;DHT22;41912;51.022;3.664;2022-10-15T06:36:27;15.50;99.90
56044;DHT22;41912;51.022;3.664;2022-10-15T06:38:53;15.50;99.90
56044;DHT22;41912;51.022;3.664;2022-10-15T06:41:19;15.50;99.90
56044;DHT22;41912;51.022;3.664;2022-10-15T06:43:48;15.50;99.90
56044;DHT22;41912;51.022;3.664;2022-10-15T06:46:13;15.50;99.90
56044;DHT22;41912;51.022;3.664;2022-10-15T06:48:39;15.50;99.90
56044;DHT22;41912;51.022;3.664;2022-10-15T06:51:05;15.50;99.90
56044;DHT22;41912;51.022;3.664;2022-10-15T06:53:31;15.50;99.90
56044;DHT22;41912;51.022;3.664;2022-10-15T06:56:00;15.50;99.90
56044;DHT22;41912;51.022;3.664;2022-10-15T06:58:27;15.60;99.90
56044;DHT22;41912;51.022;3.664;2022-10-15T07:00:58;15.60;99.90
56044;DHT22;41912;51.022;3.664;2022-10-15T07:03:23;15.60;99.90
56044;DHT22;41912;51.022;3.664;2022-10-15T07:05:49;15.60;99.90
56044;DHT22;41912;51.022;3.664;2022-10-15T07:08:15;15.60;99.90
56044;DHT22;41912;51.022;3.664;2022-10-15T07:10:40;15.60;99.90
56044;DHT22;41912;51.022;3.664;2022-10-15T07:13:06;15.60;99.90
56044;DHT22;41912;51.022;3.664;2022-10-15T07:15:31;15.60;99.90
56044;DHT22;41912;51.022;3.664;2022-10-15T07:17:58;15.60;99.90
56044;DHT22;41912;51.022;3.664;2022-10-15T07:20:28;15.70;99.90
56044;DHT22;41912;51.022;3.664;2022-10-15T07:22:59;15.70;99.90
56044;DHT22;41912;51.022;3.664;2022-10-15T07:25:26;15.70;99.90
56044;DHT22;41912;51.022;3.664;2022-10-15T07:27:52;15.70;99.90
56044;DHT22;41912;51.022;3.664;2022-10-15T07:30:20;15.70;99.90
56044;DHT22;41912;51.022;3.664;2022-10-15T07:32:46;15.70;99.90
56044;DHT22;41912;51.022;3.664;2022-10-15T07:35:11;15.70;99.90
56044;DHT22;41912;51.022;3.664;2022-10-15T07:37:37;15.70;99.90
56044;DHT22;41912;51.022;3.664;2022-10-15T07:40:03;15.70;99.90
56044;DHT22;41912;51.022;3.664;2022-10-15T07:42:29;15.70;99.90
56044;DHT22;41912;51.022;3.664;2022-10-15T07:44:54;15.70;99.90
56044;DHT22;41912;51.022;3.664;2022-10-15T07:47:20;15.80;99.90
56044;DHT22;41912;51.022;3.664;2022-10-15T07:49:45;15.80;99.90
56044;DHT22;41912;51.022;3.664;2022-10-15T07:52:11;15.80;99.90
56044;DHT22;41912;51.022;3.664;2022-10-15T07:54:37;15.80;99.90
56044;DHT22;41912;51.022;3.664;2022-10-15T07:57:02;15.80;99.90
56044;DHT22;41912;51.022;3.664;2022-10-15T07:59:28;15.80;99.90
56044;DHT22;41912;51.022;3.664;2022-10-15T08:01:54;15.80;99.90
56044;DHT22;41912;51.022;3.664;2022-10-15T08:04:19;15.90;99.90
56044;DHT22;41912;51.022;3.664;2022-10-15T08:06:45;15.90;99.90
56044;DHT22;41912;51.022;3.664;2022-10-15T08:09:11;15.90;99.90
56044;DHT22;41912;51.022;3.664;2022-10-15T08:11:37;15.90;99.90
56044;DHT22;41912;51.022;3.664;2022-10-15T08:14:02;15.90;99.90
56044;DHT22;41912;51.022;3.664;2022-10-15T08:16:28;15.90;99.90
56044;DHT22;41912;51.022;3.664;2022-10-15T08:18:54;15.90;99.90
56044;DHT22;41912;51.022;3.664;2022-10-15T08:21:19;15.90;99.90
56044;DHT22;41912;51.022;3.664;2022-10-15T08:23:45;15.90;99.90
56044;DHT22;41912;51.022;3.664;2022-10-15T08:26:11;15.90;99.90
56044;DHT22;41912;51.022;3.664;2022-10-15T08:28:37;16.00;99.90
56044;DHT22;41912;51.022;3.664;2022-10-15T08:31:03;16.00;99.90
56044;DHT22;41912;51.022;3.664;2022-10-15T08:33:30;16.00;99.90
56044;DHT22;41912;51.022;3.664;2022-10-15T08:35:56;16.10;99.90
56044;DHT22;41912;51.022;3.664;2022-10-15T08:38:21;16.10;99.90
56044;DHT22;41912;51.022;3.664;2022-10-15T08:40:55;16.10;99.90
56044;DHT22;41912;51.022;3.664;2022-10-15T08:43:41;16.20;99.90
56044;DHT22;41912;51.022;3.664;2022-10-15T08:46:12;16.20;99.90
56044;DHT22;41912;51.022;3.664;2022-10-15T08:48:44;16.20;99.90
56044;DHT22;41912;51.022;3.664;2022-10-15T08:51:17;16.20;99.90
56044;DHT22;41912;51.022;3.664;2022-10-15T08:53:50;16.20;99.90
56044;DHT22;41912;51.022;3.664;2022-10-15T08:56:29;16.30;99.90
56044;DHT22;41912;51.022;3.664;2022-10-15T08:59:30;16.30;99.90
56044;DHT22;41912;51.022;3.664;2022-10-15T09:02:14;16.40;99.90
56044;DHT22;41912;51.022;3.664;2022-10-15T09:08:10;16.40;99.90
56044;DHT22;41912;51.022;3.664;2022-10-15T09:10:56;16.40;99.90
56044;DHT22;41912;51.022;3.664;2022-10-15T09:13:27;16.50;99.90
56044;DHT22;41912;51.022;3.664;2022-10-15T09:16:17;16.50;99.90
56044;DHT22;41912;51.022;3.664;2022-10-15T09:18:47;16.60;99.90
56044;DHT22;41912;51.022;3.664;2022-10-15T09:21:15;16.60;99.90
56044;DHT22;41912;51.022;3.664;2022-10-15T09:23:42;16.60;99.90
56044;DHT22;41912;51.022;3.664;2022-10-15T09:31:44;16.80;99.90
56044;DHT22;41912;51.022;3.664;2022-10-15T09:34:16;16.80;99.90
56044;DHT22;41912;51.022;3.664;2022-10-15T09:36:51;16.80;99.90
56044;DHT22;41912;51.022;3.664;2022-10-15T09:39:35;16.90;99.90
56044;DHT22;41912;51.022;3.664;2022-10-15T09:44:58;16.90;99.90
56044;DHT22;41912;51.022;3.664;2022-10-15T09:49:50;17.00;99.90
56044;DHT22;41912;51.022;3.664;2022-10-15T09:55:11;17.10;99.90
56044;DHT22;41912;51.022;3.664;2022-10-15T09:57:47;17.20;99.90
56044;DHT22;41912;51.022;3.664;2022-10-15T10:00:16;17.20;99.90
56044;DHT22;41912;51.022;3.664;2022-10-15T10:02:41;17.30;99.90
56044;DHT22;41912;51.022;3.664;2022-10-15T10:05:25;17.30;99.90
56044;DHT22;41912;51.022;3.664;2022-10-15T10:08:06;17.40;99.90
56044;DHT22;41912;51.022;3.664;2022-10-15T10:10:34;17.40;99.90
56044;DHT22;41912;51.022;3.664;2022-10-15T10:13:00;17.40;99.90
56044;DHT22;41912;51.022;3.664;2022-10-15T10:15:40;17.50;99.90
56044;DHT22;41912;51.022;3.664;2022-10-15T10:18:20;17.60;99.90
56044;DHT22;41912;51.022;3.664;2022-10-15T10:21:04;17.70;99.90
56044;DHT22;41912;51.022;3.664;2022-10-15T10:23:31;17.70;99.90
56044;DHT22;41912;51.022;3.664;2022-10-15T10:26:05;17.80;99.90
56044;DHT22;41912;51.022;3.664;2022-10-15T10:28:53;17.80;99.90
56044;DHT22;41912;51.022;3.664;2022-10-15T10:31:27;17.80;99.90
56044;DHT22;41912;51.022;3.664;2022-10-15T10:33:55;17.90;99.90
56044;DHT22;41912;51.022;3.664;2022-10-15T10:36:26;17.90;99.90
56044;DHT22;41912;51.022;3.664;2022-10-15T10:44:32;18.00;99.90
56044;DHT22;41912;51.022;3.664;2022-10-15T10:49:35;18.10;99.90
56044;DHT22;41912;51.022;3.664;2022-10-15T10:52:02;18.20;99.90
56044;DHT22;41912;51.022;3.664;2022-10-15T10:54:29;18.20;99.90
56044;DHT22;41912;51.022;3.664;2022-10-15T10:56:56;18.30;99.90
56044;DHT22;41912;51.022;3.664;2022-10-15T10:59:34;18.30;99.90
56044;DHT22;41912;51.022;3.664;2022-10-15T11:02:00;18.30;99.90
56044;DHT22;41912;51.022;3.664;2022-10-15T11:04:32;18.30;99.90
56044;DHT22;41912;51.022;3.664;2022-10-15T11:07:09;18.40;99.90
56044;DHT22;41912;51.022;3.664;2022-10-15T11:09:48;18.30;99.90
56044;DHT22;41912;51.022;3.664;2022-10-15T11:15:29;18.30;99.90
56044;DHT22;41912;51.022;3.664;2022-10-15T11:34:24;18.40;99.90
56044;DHT22;41912;51.022;3.664;2022-10-15T11:43:14;18.30;99.90
56044;DHT22;41912;51.022;3.664;2022-10-15T11:58:44;18.30;99.90
56044;DHT22;41912;51.022;3.664;2022-10-15T12:01:51;18.40;99.90
56044;DHT22;41912;51.022;3.664;2022-10-15T12:07:02;18.50;99.90
56044;DHT22;41912;51.022;3.664;2022-10-15T12:09:31;18.50;99.90
56044;DHT22;41912;51.022;3.664;2022-10-15T12:12:04;18.50;99.90
56044;DHT22;41912;51.022;3.664;2022-10-15T12:14:42;18.50;99.90
56044;DHT22;41912;51.022;3.664;2022-10-15T12:19:58;18.50;99.90
56044;DHT22;41912;51.022;3.664;2022-10-15T12:22:38;18.50;99.90
56044;DHT22;41912;51.022;3.664;2022-10-15T12:25:05;18.50;99.90
56044;DHT22;41912;51.022;3.664;2022-10-15T12:27:34;18.50;99.90
56044;DHT22;41912;51.022;3.664;2022-10-15T12:32:43;18.60;99.70
56044;DHT22;41912;51.022;3.664;2022-10-15T12:37:39;18.80;99.90
56044;DHT22;41912;51.022;3.664;2022-10-15T12:42:50;18.60;99.90
56044;DHT22;41912;51.022;3.664;2022-10-15T12:45:39;18.60;99.90
56044;DHT22;41912;51.022;3.664;2022-10-15T12:50:32;18.70;99.90
56044;DHT22;41912;51.022;3.664;2022-10-15T12:55:36;18.80;99.90
56044;DHT22;41912;51.022;3.664;2022-10-15T13:00:39;18.80;99.40
56044;DHT22;41912;51.022;3.664;2022-10-15T13:03:17;18.80;99.50
56044;DHT22;41912;51.022;3.664;2022-10-15T13:05:45;18.80;99.70
56044;DHT22;41912;51.022;3.664;2022-10-15T13:08:18;18.80;99.70
56044;DHT22;41912;51.022;3.664;2022-10-15T13:10:49;18.80;99.70
56044;DHT22;41912;51.022;3.664;2022-10-15T13:13:18;18.90;99.90
56044;DHT22;41912;51.022;3.664;2022-10-15T13:15:59;18.90;99.90
56044;DHT22;41912;51.022;3.664;2022-10-15T13:18:28;18.90;99.90
56044;DHT22;41912;51.022;3.664;2022-10-15T13:20:55;18.90;99.90
56044;DHT22;41912;51.022;3.664;2022-10-15T13:23:24;18.90;99.90
56044;DHT22;41912;51.022;3.664;2022-10-15T13:26:11;18.90;99.90
56044;DHT22;41912;51.022;3.664;2022-10-15T13:28:39;19.00;99.90
56044;DHT22;41912;51.022;3.664;2022-10-15T13:31:15;19.00;99.40
56044;DHT22;41912;51.022;3.664;2022-10-15T13:33:44;19.10;99.50
56044;DHT22;41912;51.022;3.664;2022-10-15T13:36:29;19.10;99.50
56044;DHT22;41912;51.022;3.664;2022-10-15T13:38:59;19.20;99.50
56044;DHT22;41912;51.022;3.664;2022-10-15T13:41:29;19.30;99.70
56044;DHT22;41912;51.022;3.664;2022-10-15T13:43:56;19.30;99.60
56044;DHT22;41912;51.022;3.664;2022-10-15T13:46:35;19.30;99.30
56044;DHT22;41912;51.022;3.664;2022-10-15T13:49:08;19.30;98.20
56044;DHT22;41912;51.022;3.664;2022-10-15T13:51:38;19.30;98.00
56044;DHT22;41912;51.022;3.664;2022-10-15T13:54:27;19.30;97.40
56044;DHT22;41912;51.022;3.664;2022-10-15T13:56:59;19.40;96.40
56044;DHT22;41912;51.022;3.664;2022-10-15T13:59:27;19.40;95.50
56044;DHT22;41912;51.022;3.664;2022-10-15T14:01:59;19.50;95.80
56044;DHT22;41912;51.022;3.664;2022-10-15T14:04:27;19.60;96.20
56044;DHT22;41912;51.022;3.664;2022-10-15T14:11:53;19.60;96.40
56044;DHT22;41912;51.022;3.664;2022-10-15T14:14:30;19.50;96.50
56044;DHT22;41912;51.022;3.664;2022-10-15T14:16:58;19.50;96.20
56044;DHT22;41912;51.022;3.664;2022-10-15T14:19:24;19.60;95.60
56044;DHT22;41912;51.022;3.664;2022-10-15T14:21:55;19.50;95.20
56044;DHT22;41912;51.022;3.664;2022-10-15T14:24:25;19.60;95.30
56044;DHT22;41912;51.022;3.664;2022-10-15T14:26:52;19.50;95.40
56044;DHT22;41912;51.022;3.664;2022-10-15T14:29:33;19.50;95.60
56044;DHT22;41912;51.022;3.664;2022-10-15T14:32:00;19.50;94.70
56044;DHT22;41912;51.022;3.664;2022-10-15T14:37:29;19.40;95.40
56044;DHT22;41912;51.022;3.664;2022-10-15T14:40:21;19.40;95.90
56044;DHT22;41912;51.022;3.664;2022-10-15T14:43:05;19.50;95.80
56044;DHT22;41912;51.022;3.664;2022-10-15T14:45:42;19.50;95.80
56044;DHT22;41912;51.022;3.664;2022-10-15T14:48:27;19.50;95.60
56044;DHT22;41912;51.022;3.664;2022-10-15T14:51:00;19.50;95.80
56044;DHT22;41912;51.022;3.664;2022-10-15T14:53:30;19.50;95.80
56044;DHT22;41912;51.022;3.664;2022-10-15T14:56:00;19.40;95.60
56044;DHT22;41912;51.022;3.664;2022-10-15T14:58:27;19.40;95.60
56044;DHT22;41912;51.022;3.664;2022-10-15T15:00:56;19.50;95.80
56044;DHT22;41912;51.022;3.664;2022-10-15T15:03:42;19.40;94.80
56044;DHT22;41912;51.022;3.664;2022-10-15T15:06:10;19.40;94.60
56044;DHT22;41912;51.022;3.664;2022-10-15T15:08:36;19.30;95.00
56044;DHT22;41912;51.022;3.664;2022-10-15T15:11:03;19.30;95.10
56044;DHT22;41912;51.022;3.664;2022-10-15T15:13:31;19.30;95.40
56044;DHT22;41912;51.022;3.664;2022-10-15T15:16:02;19.30;96.10
56044;DHT22;41912;51.022;3.664;2022-10-15T15:18:28;19.30;96.00
56044;DHT22;41912;51.022;3.664;2022-10-15T15:20:58;19.30;95.50
56044;DHT22;41912;51.022;3.664;2022-10-15T15:23:26;19.30;95.60
56044;DHT22;41912;51.022;3.664;2022-10-15T15:25:52;19.30;95.50
56044;DHT22;41912;51.022;3.664;2022-10-15T15:28:21;19.30;95.70
56044;DHT22;41912;51.022;3.664;2022-10-15T15:30:54;19.30;95.80
56044;DHT22;41912;51.022;3.664;2022-10-15T15:33:20;19.20;95.30
56044;DHT22;41912;51.022;3.664;2022-10-15T15:35:52;19.30;95.40
56044;DHT22;41912;51.022;3.664;2022-10-15T15:38:20;19.20;94.60
56044;DHT22;41912;51.022;3.664;2022-10-15T15:40:46;19.10;94.70
56044;DHT22;41912;51.022;3.664;2022-10-15T15:43:14;19.10;94.90
56044;DHT22;41912;51.022;3.664;2022-10-15T15:45:40;19.00;95.10
56044;DHT22;41912;51.022;3.664;2022-10-15T15:48:05;19.00;95.00
56044;DHT22;41912;51.022;3.664;2022-10-15T15:50:31;19.00;94.80
56044;DHT22;41912;51.022;3.664;2022-10-15T15:52:57;19.00;94.80
56044;DHT22;41912;51.022;3.664;2022-10-15T15:55:23;19.00;94.70
56044;DHT22;41912;51.022;3.664;2022-10-15T15:57:48;18.90;94.30
56044;DHT22;41912;51.022;3.664;2022-10-15T16:00:15;18.90;94.80
56044;DHT22;41912;51.022;3.664;2022-10-15T16:02:41;18.90;94.70
56044;DHT22;41912;51.022;3.664;2022-10-15T16:05:08;18.90;94.80
56044;DHT22;41912;51.022;3.664;2022-10-15T16:07:35;18.90;95.00
56044;DHT22;41912;51.022;3.664;2022-10-15T16:10:01;18.90;95.10
56044;DHT22;41912;51.022;3.664;2022-10-15T16:12:28;18.80;95.20
56044;DHT22;41912;51.022;3.664;2022-10-15T16:14:54;18.80;95.40
56044;DHT22;41912;51.022;3.664;2022-10-15T16:17:20;18.80;95.80
56044;DHT22;41912;51.022;3.664;2022-10-15T16:19:45;18.70;96.00
56044;DHT22;41912;51.022;3.664;2022-10-15T16:22:11;18.70;95.90
56044;DHT22;41912;51.022;3.664;2022-10-15T16:24:37;18.60;95.70
56044;DHT22;41912;51.022;3.664;2022-10-15T16:27:03;18.70;95.90
56044;DHT22;41912;51.022;3.664;2022-10-15T16:29:29;18.60;96.10
56044;DHT22;41912;51.022;3.664;2022-10-15T16:31:54;18.50;96.30
56044;DHT22;41912;51.022;3.664;2022-10-15T16:34:20;18.50;96.40
56044;DHT22;41912;51.022;3.664;2022-10-15T16:36:45;18.40;96.40
56044;DHT22;41912;51.022;3.664;2022-10-15T16:39:11;18.40;96.70
56044;DHT22;41912;51.022;3.664;2022-10-15T16:41:37;18.40;96.80
56044;DHT22;41912;51.022;3.664;2022-10-15T16:44:02;18.30;96.70
56044;DHT22;41912;51.022;3.664;2022-10-15T16:46:28;18.30;96.90
56044;DHT22;41912;51.022;3.664;2022-10-15T16:48:55;18.20;96.70
56044;DHT22;41912;51.022;3.664;2022-10-15T16:51:22;18.20;96.50
56044;DHT22;41912;51.022;3.664;2022-10-15T16:53:49;18.10;96.20
56044;DHT22;41912;51.022;3.664;2022-10-15T16:56:28;18.10;96.10
56044;DHT22;41912;51.022;3.664;2022-10-15T16:58:54;18.10;96.20
56044;DHT22;41912;51.022;3.664;2022-10-15T17:01:29;18.10;96.20
56044;DHT22;41912;51.022;3.664;2022-10-15T17:03:57;18.00;96.30
56044;DHT22;41912;51.022;3.664;2022-10-15T17:06:25;18.00;96.20
56044;DHT22;41912;51.022;3.664;2022-10-15T17:08:56;17.90;96.70
56044;DHT22;41912;51.022;3.664;2022-10-15T17:11:23;17.90;96.90
56044;DHT22;41912;51.022;3.664;2022-10-15T17:13:50;17.80;96.90
56044;DHT22;41912;51.022;3.664;2022-10-15T17:16:19;17.80;96.50
56044;DHT22;41912;51.022;3.664;2022-10-15T17:18:45;17.70;96.80
56044;DHT22;41912;51.022;3.664;2022-10-15T17:21:14;17.70;96.90
56044;DHT22;41912;51.022;3.664;2022-10-15T17:23:40;17.60;96.80
56044;DHT22;41912;51.022;3.664;2022-10-15T17:26:12;17.60;96.70
56044;DHT22;41912;51.022;3.664;2022-10-15T17:28:38;17.60;96.70
56044;DHT22;41912;51.022;3.664;2022-10-15T17:31:09;17.50;97.00
56044;DHT22;41912;51.022;3.664;2022-10-15T17:33:37;17.50;97.00
56044;DHT22;41912;51.022;3.664;2022-10-15T17:36:13;17.50;97.10
56044;DHT22;41912;51.022;3.664;2022-10-15T17:38:39;17.50;97.30
56044;DHT22;41912;51.022;3.664;2022-10-15T17:41:16;17.40;97.20